sensor_id;sensor_type;location;lat;lon;timestamp;P1;durP1;ratioP1;P2;durP2;ratioP2
20476;SDS011;10397;50.948;11.092;2023-05-10T00:01:16;2.27;;;1.13;;
20476;SDS011;10397;50.948;11.092;2023-05-10T00:03:47;2.47;;;1.37;;
20476;SDS011;10397;50.948;11.092;2023-05-10T00:06:18;2.23;;;1.40;;
20476;SDS011;10397;50.948;11.092;2023-05-10T00:08:49;1.83;;;1.10;;
20476;SDS011;10397;50.948;11.092;2023-05-10T00:11:20;3.07;;;0.90;;
20476;SDS011;10397;50.948;11.092;2023-05-10T00:13:51;13.60;;;1.40;;
20476;SDS011;10397;50.948;11.092;2023-05-10T00:16:22;5.87;;;1.37;;
20476;SDS011;10397;50.948;11.092;2023-05-10T00:18:53;5.43;;;1.50;;
20476;SDS011;10397;50.948;11.092;2023-05-10T00:21:25;3.93;;;1.17;;
20476;SDS011;10397;50.948;11.092;2023-05-10T00:23:55;4.13;;;1.30;;
20476;SDS011;10397;50.948;11.092;2023-05-10T00:26:26;2.47;;;1.30;;
20476;SDS011;10397;50.948;11.092;2023-05-10T00:28:57;4.27;;;1.40;;
20476;SDS011;10397;50.948;11.092;2023-05-10T00:31:28;2.53;;;1.40;;
20476;SDS011;10397;50.948;11.092;2023-05-10T00:33:59;2.90;;;1.60;;
20476;SDS011;10397;50.948;11.092;2023-05-10T00:36:30;3.13;;;1.13;;
20476;SDS011;10397;50.948;11.092;2023-05-10T00:39:01;2.27;;;1.10;;
20476;SDS011;10397;50.948;11.092;2023-05-10T00:41:32;2.73;;;1.10;;
20476;SDS011;10397;50.948;11.092;2023-05-10T00:44:03;4.03;;;1.40;;
20476;SDS011;10397;50.948;11.092;2023-05-10T00:46:34;3.80;;;1.40;;
20476;SDS011;10397;50.948;11.092;2023-05-10T00:49:05;2.73;;;1.63;;
20476;SDS011;10397;50.948;11.092;2023-05-10T00:51:36;3.73;;;1.20;;
20476;SDS011;10397;50.948;11.092;2023-05-10T00:54:07;7.80;;;1.23;;
20476;SDS011;10397;50.948;11.092;2023-05-10T00:56:38;3.63;;;1.23;;
20476;SDS011;10397;50.948;11.092;2023-05-10T00:59:09;4.87;;;1.60;;
20476;SDS011;10397;50.948;11.092;2023-05-10T01:01:40;2.80;;;1.57;;
20476;SDS011;10397;50.948;11.092;2023-05-10T01:04:11;4.90;;;1.30;;
20476;SDS011;10397;50.948;11.092;2023-05-10T01:06:43;2.50;;;1.47;;
20476;SDS011;10397;50.948;11.092;2023-05-10T01:09:14;3.47;;;1.30;;
20476;SDS011;10397;50.948;11.092;2023-05-10T01:11:45;3.57;;;1.40;;
20476;SDS011;10397;50.948;11.092;2023-05-10T01:14:16;5.90;;;1.63;;
20476;SDS011;10397;50.948;11.092;2023-05-10T01:16:46;4.33;;;1.57;;
20476;SDS011;10397;50.948;11.092;2023-05-10T01:19:19;3.00;;;1.60;;
20476;SDS011;10397;50.948;11.092;2023-05-10T01:25:10;1.97;;;1.43;;
20476;SDS011;10397;50.948;11.092;2023-05-10T01:33:43;3.17;;;1.40;;
20476;SDS011;10397;50.948;11.092;2023-05-10T01:36:35;2.27;;;1.40;;
20476;SDS011;10397;50.948;11.092;2023-05-10T01:39:32;3.57;;;1.60;;
20476;SDS011;10397;50.948;11.092;2023-05-10T01:45:00;3.73;;;1.10;;
20476;SDS011;10397;50.948;11.092;2023-05-10T01:47:35;1.83;;;1.20;;
20476;SDS011;10397;50.948;11.092;2023-05-10T01:50:02;1.90;;;1.20;;
20476;SDS011;10397;50.948;11.092;2023-05-10T01:52:33;3.03;;;1.30;;
20476;SDS011;10397;50.948;11.092;2023-05-10T01:55:06;3.33;;;1.47;;
20476;SDS011;10397;50.948;11.092;2023-05-10T01:57:36;10.93;;;1.60;;
20476;SDS011;10397;50.948;11.092;2023-05-10T02:00:06;2.53;;;1.50;;
20476;SDS011;10397;50.948;11.092;2023-05-10T02:02:37;4.00;;;1.77;;
20476;SDS011;10397;50.948;11.092;2023-05-10T02:05:07;3.33;;;1.30;;
20476;SDS011;10397;50.948;11.092;2023-05-10T02:07:37;2.33;;;1.33;;
20476;SDS011;10397;50.948;11.092;2023-05-10T02:10:09;4.60;;;1.37;;
20476;SDS011;10397;50.948;11.092;2023-05-10T02:12:41;1.90;;;1.40;;
20476;SDS011;10397;50.948;11.092;2023-05-10T02:15:10;3.13;;;1.63;;
20476;SDS011;10397;50.948;11.092;2023-05-10T02:17:40;7.07;;;1.73;;
20476;SDS011;10397;50.948;11.092;2023-05-10T02:20:11;2.83;;;1.40;;
20476;SDS011;10397;50.948;11.092;2023-05-10T02:22:42;1.93;;;1.40;;
20476;SDS011;10397;50.948;11.092;2023-05-10T02:25:12;1.67;;;1.40;;
20476;SDS011;10397;50.948;11.092;2023-05-10T02:27:43;1.90;;;1.53;;
20476;SDS011;10397;50.948;11.092;2023-05-10T02:30:14;2.57;;;1.60;;
20476;SDS011;10397;50.948;11.092;2023-05-10T02:32:45;4.27;;;1.73;;
20476;SDS011;10397;50.948;11.092;2023-05-10T02:35:16;1.43;;;1.20;;
20476;SDS011;10397;50.948;11.092;2023-05-10T02:37:47;1.83;;;1.20;;
20476;SDS011;10397;50.948;11.092;2023-05-10T02:40:17;4.43;;;1.77;;
20476;SDS011;10397;50.948;11.092;2023-05-10T02:42:48;4.60;;;1.30;;
20476;SDS011;10397;50.948;11.092;2023-05-10T02:45:19;3.27;;;1.43;;
20476;SDS011;10397;50.948;11.092;2023-05-10T02:47:49;2.00;;;1.30;;
20476;SDS011;10397;50.948;11.092;2023-05-10T02:50:20;1.93;;;1.50;;
20476;SDS011;10397;50.948;11.092;2023-05-10T02:52:51;2.67;;;1.33;;
20476;SDS011;10397;50.948;11.092;2023-05-10T02:55:22;1.60;;;1.50;;
20476;SDS011;10397;50.948;11.092;2023-05-10T02:57:54;2.13;;;1.47;;
20476;SDS011;10397;50.948;11.092;2023-05-10T03:00:24;1.70;;;1.20;;
20476;SDS011;10397;50.948;11.092;2023-05-10T03:02:53;2.40;;;1.50;;
20476;SDS011;10397;50.948;11.092;2023-05-10T03:05:24;2.47;;;1.53;;
20476;SDS011;10397;50.948;11.092;2023-05-10T03:07:54;4.67;;;1.20;;
20476;SDS011;10397;50.948;11.092;2023-05-10T03:10:26;2.30;;;1.73;;
20476;SDS011;10397;50.948;11.092;2023-05-10T03:16:04;2.03;;;1.43;;
20476;SDS011;10397;50.948;11.092;2023-05-10T03:21:10;3.23;;;1.50;;
20476;SDS011;10397;50.948;11.092;2023-05-10T03:23:43;3.30;;;1.70;;
20476;SDS011;10397;50.948;11.092;2023-05-10T03:26:16;3.87;;;1.80;;
20476;SDS011;10397;50.948;11.092;2023-05-10T03:28:44;5.67;;;1.87;;
20476;SDS011;10397;50.948;11.092;2023-05-10T03:31:15;2.10;;;1.67;;
20476;SDS011;10397;50.948;11.092;2023-05-10T03:33:49;3.87;;;1.90;;
20476;SDS011;10397;50.948;11.092;2023-05-10T03:36:19;3.73;;;1.53;;
20476;SDS011;10397;50.948;11.092;2023-05-10T03:38:50;2.80;;;1.93;;
20476;SDS011;10397;50.948;11.092;2023-05-10T03:41:21;2.90;;;1.47;;
20476;SDS011;10397;50.948;11.092;2023-05-10T03:43:53;6.53;;;2.07;;
20476;SDS011;10397;50.948;11.092;2023-05-10T03:46:23;3.63;;;1.93;;
20476;SDS011;10397;50.948;11.092;2023-05-10T03:48:53;2.10;;;1.50;;
20476;SDS011;10397;50.948;11.092;2023-05-10T03:51:24;4.03;;;1.77;;
20476;SDS011;10397;50.948;11.092;2023-05-10T03:53:55;2.70;;;1.60;;
20476;SDS011;10397;50.948;11.092;2023-05-10T03:56:26;3.60;;;2.00;;
20476;SDS011;10397;50.948;11.092;2023-05-10T03:58:57;2.03;;;1.70;;
20476;SDS011;10397;50.948;11.092;2023-05-10T04:01:28;5.33;;;2.20;;
20476;SDS011;10397;50.948;11.092;2023-05-10T04:03:59;3.40;;;2.20;;
20476;SDS011;10397;50.948;11.092;2023-05-10T04:06:30;4.33;;;1.97;;
20476;SDS011;10397;50.948;11.092;2023-05-10T04:09:01;2.40;;;2.20;;
20476;SDS011;10397;50.948;11.092;2023-05-10T04:11:31;2.93;;;2.17;;
20476;SDS011;10397;50.948;11.092;2023-05-10T04:14:02;3.00;;;2.07;;
20476;SDS011;10397;50.948;11.092;2023-05-10T04:16:34;6.30;;;2.53;;
20476;SDS011;10397;50.948;11.092;2023-05-10T04:19:05;3.10;;;2.27;;
20476;SDS011;10397;50.948;11.092;2023-05-10T04:21:36;3.30;;;2.10;;
20476;SDS011;10397;50.948;11.092;2023-05-10T04:24:06;6.00;;;2.30;;
20476;SDS011;10397;50.948;11.092;2023-05-10T04:26:37;2.53;;;2.30;;
20476;SDS011;10397;50.948;11.092;2023-05-10T04:29:09;3.73;;;2.30;;
20476;SDS011;10397;50.948;11.092;2023-05-10T04:31:39;9.90;;;3.03;;
20476;SDS011;10397;50.948;11.092;2023-05-10T04:34:10;3.43;;;2.77;;
20476;SDS011;10397;50.948;11.092;2023-05-10T04:36:41;7.30;;;2.63;;
20476;SDS011;10397;50.948;11.092;2023-05-10T04:39:12;5.57;;;2.80;;
20476;SDS011;10397;50.948;11.092;2023-05-10T04:41:43;4.80;;;2.70;;
20476;SDS011;10397;50.948;11.092;2023-05-10T04:44:15;8.27;;;2.63;;
20476;SDS011;10397;50.948;11.092;2023-05-10T04:46:46;2.53;;;2.33;;
20476;SDS011;10397;50.948;11.092;2023-05-10T04:49:17;3.17;;;2.87;;
20476;SDS011;10397;50.948;11.092;2023-05-10T04:51:48;2.97;;;2.67;;
20476;SDS011;10397;50.948;11.092;2023-05-10T04:54:19;7.97;;;3.17;;
20476;SDS011;10397;50.948;11.092;2023-05-10T04:56:50;5.83;;;2.60;;
20476;SDS011;10397;50.948;11.092;2023-05-10T04:59:21;4.13;;;2.77;;
20476;SDS011;10397;50.948;11.092;2023-05-10T05:01:52;6.77;;;3.00;;
20476;SDS011;10397;50.948;11.092;2023-05-10T05:04:23;3.40;;;3.03;;
20476;SDS011;10397;50.948;11.092;2023-05-10T05:06:55;4.63;;;2.60;;
20476;SDS011;10397;50.948;11.092;2023-05-10T05:09:26;3.30;;;2.47;;
20476;SDS011;10397;50.948;11.092;2023-05-10T05:11:57;4.13;;;3.13;;
20476;SDS011;10397;50.948;11.092;2023-05-10T05:14:28;2.63;;;2.27;;
20476;SDS011;10397;50.948;11.092;2023-05-10T05:16:58;4.57;;;2.70;;
20476;SDS011;10397;50.948;11.092;2023-05-10T05:19:30;3.17;;;2.50;;
20476;SDS011;10397;50.948;11.092;2023-05-10T05:22:00;5.27;;;3.53;;
20476;SDS011;10397;50.948;11.092;2023-05-10T05:24:34;4.93;;;2.63;;
20476;SDS011;10397;50.948;11.092;2023-05-10T05:27:01;3.80;;;2.67;;
20476;SDS011;10397;50.948;11.092;2023-05-10T05:29:32;5.50;;;2.67;;
20476;SDS011;10397;50.948;11.092;2023-05-10T05:32:03;4.13;;;2.73;;
20476;SDS011;10397;50.948;11.092;2023-05-10T05:34:33;2.60;;;2.17;;
20476;SDS011;10397;50.948;11.092;2023-05-10T05:37:04;2.80;;;2.57;;
20476;SDS011;10397;50.948;11.092;2023-05-10T05:39:35;3.33;;;1.97;;
20476;SDS011;10397;50.948;11.092;2023-05-10T05:42:05;4.03;;;1.87;;
20476;SDS011;10397;50.948;11.092;2023-05-10T05:44:36;5.23;;;1.77;;
20476;SDS011;10397;50.948;11.092;2023-05-10T05:47:07;3.83;;;2.00;;
20476;SDS011;10397;50.948;11.092;2023-05-10T05:49:37;1.37;;;1.23;;
20476;SDS011;10397;50.948;11.092;2023-05-10T05:52:08;1.83;;;1.10;;
20476;SDS011;10397;50.948;11.092;2023-05-10T05:54:39;2.53;;;1.30;;
20476;SDS011;10397;50.948;11.092;2023-05-10T05:57:10;1.80;;;1.30;;
20476;SDS011;10397;50.948;11.092;2023-05-10T05:59:41;1.90;;;1.20;;
20476;SDS011;10397;50.948;11.092;2023-05-10T06:02:12;2.27;;;1.20;;
20476;SDS011;10397;50.948;11.092;2023-05-10T06:04:43;1.57;;;1.00;;
20476;SDS011;10397;50.948;11.092;2023-05-10T06:07:14;1.73;;;1.30;;
20476;SDS011;10397;50.948;11.092;2023-05-10T06:09:45;3.00;;;1.20;;
20476;SDS011;10397;50.948;11.092;2023-05-10T06:12:15;1.80;;;1.37;;
20476;SDS011;10397;50.948;11.092;2023-05-10T06:14:46;4.37;;;1.80;;
20476;SDS011;10397;50.948;11.092;2023-05-10T06:17:17;1.40;;;1.20;;
20476;SDS011;10397;50.948;11.092;2023-05-10T06:19:48;3.83;;;1.40;;
20476;SDS011;10397;50.948;11.092;2023-05-10T06:22:19;2.10;;;0.97;;
20476;SDS011;10397;50.948;11.092;2023-05-10T06:24:50;2.37;;;1.00;;
20476;SDS011;10397;50.948;11.092;2023-05-10T06:27:21;2.47;;;1.10;;
20476;SDS011;10397;50.948;11.092;2023-05-10T06:29:51;1.47;;;0.90;;
20476;SDS011;10397;50.948;11.092;2023-05-10T06:32:22;3.30;;;0.90;;
20476;SDS011;10397;50.948;11.092;2023-05-10T06:34:53;1.90;;;0.90;;
20476;SDS011;10397;50.948;11.092;2023-05-10T06:37:24;1.83;;;1.10;;
20476;SDS011;10397;50.948;11.092;2023-05-10T06:39:55;1.93;;;1.47;;
20476;SDS011;10397;50.948;11.092;2023-05-10T06:42:26;2.57;;;0.90;;
20476;SDS011;10397;50.948;11.092;2023-05-10T06:44:57;2.00;;;0.87;;
20476;SDS011;10397;50.948;11.092;2023-05-10T06:47:28;1.10;;;0.80;;
20476;SDS011;10397;50.948;11.092;2023-05-10T06:49:59;3.07;;;0.80;;
20476;SDS011;10397;50.948;11.092;2023-05-10T06:52:30;2.73;;;1.13;;
20476;SDS011;10397;50.948;11.092;2023-05-10T06:55:01;1.83;;;0.90;;
20476;SDS011;10397;50.948;11.092;2023-05-10T06:57:31;4.43;;;1.77;;
20476;SDS011;10397;50.948;11.092;2023-05-10T07:00:02;4.27;;;3.87;;
20476;SDS011;10397;50.948;11.092;2023-05-10T07:02:32;4.83;;;3.67;;
20476;SDS011;10397;50.948;11.092;2023-05-10T07:05:03;1.67;;;1.27;;
20476;SDS011;10397;50.948;11.092;2023-05-10T07:07:34;1.63;;;1.53;;
20476;SDS011;10397;50.948;11.092;2023-05-10T07:10:05;1.03;;;0.67;;
20476;SDS011;10397;50.948;11.092;2023-05-10T07:12:35;3.17;;;0.70;;
20476;SDS011;10397;50.948;11.092;2023-05-10T07:15:07;1.07;;;0.70;;
20476;SDS011;10397;50.948;11.092;2023-05-10T07:17:37;1.03;;;0.50;;
20476;SDS011;10397;50.948;11.092;2023-05-10T07:20:08;0.43;;;0.33;;
20476;SDS011;10397;50.948;11.092;2023-05-10T07:22:39;0.63;;;0.40;;
20476;SDS011;10397;50.948;11.092;2023-05-10T07:25:10;0.93;;;0.40;;
20476;SDS011;10397;50.948;11.092;2023-05-10T07:27:40;1.77;;;0.63;;
20476;SDS011;10397;50.948;11.092;2023-05-10T07:30:12;0.73;;;0.40;;
20476;SDS011;10397;50.948;11.092;2023-05-10T07:32:42;1.30;;;0.60;;
20476;SDS011;10397;50.948;11.092;2023-05-10T07:35:13;0.57;;;0.40;;
20476;SDS011;10397;50.948;11.092;2023-05-10T07:37:44;0.90;;;0.30;;
20476;SDS011;10397;50.948;11.092;2023-05-10T07:40:15;0.73;;;0.50;;
20476;SDS011;10397;50.948;11.092;2023-05-10T07:42:46;0.90;;;0.40;;
20476;SDS011;10397;50.948;11.092;2023-05-10T07:45:17;1.00;;;0.37;;
20476;SDS011;10397;50.948;11.092;2023-05-10T07:47:47;0.30;;;0.30;;
20476;SDS011;10397;50.948;11.092;2023-05-10T07:50:18;0.30;;;0.20;;
20476;SDS011;10397;50.948;11.092;2023-05-10T07:52:49;0.60;;;0.20;;
20476;SDS011;10397;50.948;11.092;2023-05-10T07:55:20;1.90;;;0.20;;
20476;SDS011;10397;50.948;11.092;2023-05-10T07:57:51;0.83;;;0.20;;
20476;SDS011;10397;50.948;11.092;2023-05-10T08:00:22;0.27;;;0.20;;
20476;SDS011;10397;50.948;11.092;2023-05-10T08:02:53;0.70;;;0.30;;
20476;SDS011;10397;50.948;11.092;2023-05-10T08:05:24;0.40;;;0.20;;
20476;SDS011;10397;50.948;11.092;2023-05-10T08:07:54;1.27;;;0.13;;
20476;SDS011;10397;50.948;11.092;2023-05-10T08:10:24;0.37;;;0.30;;
20476;SDS011;10397;50.948;11.092;2023-05-10T08:12:55;0.30;;;0.10;;
20476;SDS011;10397;50.948;11.092;2023-05-10T08:15:26;0.13;;;0.10;;
20476;SDS011;10397;50.948;11.092;2023-05-10T08:17:57;0.83;;;0.10;;
20476;SDS011;10397;50.948;11.092;2023-05-10T08:20:28;0.53;;;0.20;;
20476;SDS011;10397;50.948;11.092;2023-05-10T08:23:00;0.30;;;0.10;;
20476;SDS011;10397;50.948;11.092;2023-05-10T08:25:31;1.67;;;0.10;;
20476;SDS011;10397;50.948;11.092;2023-05-10T08:28:01;1.53;;;0.10;;
20476;SDS011;10397;50.948;11.092;2023-05-10T08:30:32;0.00;;;0.00;;
20476;SDS011;10397;50.948;11.092;2023-05-10T08:33:03;0.10;;;0.03;;
20476;SDS011;10397;50.948;11.092;2023-05-10T08:35:34;0.30;;;0.10;;
20476;SDS011;10397;50.948;11.092;2023-05-10T08:38:05;0.13;;;0.10;;
20476;SDS011;10397;50.948;11.092;2023-05-10T08:40:42;0.10;;;0.10;;
20476;SDS011;10397;50.948;11.092;2023-05-10T08:43:13;1.40;;;0.00;;
20476;SDS011;10397;50.948;11.092;2023-05-10T08:45:43;0.10;;;0.10;;
20476;SDS011;10397;50.948;11.092;2023-05-10T08:48:13;1.07;;;0.10;;
20476;SDS011;10397;50.948;11.092;2023-05-10T08:50:44;0.10;;;0.00;;
20476;SDS011;10397;50.948;11.092;2023-05-10T08:53:15;0.10;;;0.10;;
20476;SDS011;10397;50.948;11.092;2023-05-10T08:55:46;0.10;;;0.00;;
20476;SDS011;10397;50.948;11.092;2023-05-10T08:58:17;0.20;;;0.10;;
20476;SDS011;10397;50.948;11.092;2023-05-10T09:00:48;0.10;;;0.10;;
20476;SDS011;10397;50.948;11.092;2023-05-10T09:03:21;5.33;;;0.47;;
20476;SDS011;10397;50.948;11.092;2023-05-10T09:05:52;1.70;;;0.10;;
20476;SDS011;10397;50.948;11.092;2023-05-10T09:08:23;0.93;;;0.10;;
20476;SDS011;10397;50.948;11.092;2023-05-10T09:10:54;0.00;;;0.00;;
20476;SDS011;10397;50.948;11.092;2023-05-10T09:13:24;0.30;;;0.10;;
20476;SDS011;10397;50.948;11.092;2023-05-10T09:15:55;0.20;;;0.10;;
20476;SDS011;10397;50.948;11.092;2023-05-10T09:18:26;0.70;;;0.10;;
20476;SDS011;10397;50.948;11.092;2023-05-10T09:20:56;1.07;;;0.00;;
20476;SDS011;10397;50.948;11.092;2023-05-10T09:23:27;3.50;;;0.37;;
20476;SDS011;10397;50.948;11.092;2023-05-10T09:26:02;0.10;;;0.07;;
20476;SDS011;10397;50.948;11.092;2023-05-10T09:28:49;1.27;;;0.10;;
20476;SDS011;10397;50.948;11.092;2023-05-10T09:31:05;0.23;;;0.10;;
20476;SDS011;10397;50.948;11.092;2023-05-10T09:33:43;0.17;;;0.07;;
20476;SDS011;10397;50.948;11.092;2023-05-10T09:36:07;0.50;;;0.07;;
20476;SDS011;10397;50.948;11.092;2023-05-10T09:38:46;1.07;;;0.10;;
20476;SDS011;10397;50.948;11.092;2023-05-10T09:41:22;0.73;;;0.10;;
20476;SDS011;10397;50.948;11.092;2023-05-10T09:43:55;1.13;;;0.10;;
20476;SDS011;10397;50.948;11.092;2023-05-10T09:46:26;0.20;;;0.07;;
20476;SDS011;10397;50.948;11.092;2023-05-10T09:48:57;0.10;;;0.10;;
20476;SDS011;10397;50.948;11.092;2023-05-10T09:51:28;2.10;;;0.10;;
20476;SDS011;10397;50.948;11.092;2023-05-10T09:54:08;2.73;;;0.10;;
20476;SDS011;10397;50.948;11.092;2023-05-10T09:56:38;0.10;;;0.00;;
20476;SDS011;10397;50.948;11.092;2023-05-10T09:59:10;0.30;;;0.10;;
20476;SDS011;10397;50.948;11.092;2023-05-10T10:01:39;0.00;;;0.00;;
20476;SDS011;10397;50.948;11.092;2023-05-10T10:04:09;0.13;;;0.03;;
20476;SDS011;10397;50.948;11.092;2023-05-10T10:06:40;0.20;;;0.10;;
20476;SDS011;10397;50.948;11.092;2023-05-10T10:09:11;0.00;;;0.00;;
20476;SDS011;10397;50.948;11.092;2023-05-10T10:11:42;0.53;;;0.00;;
20476;SDS011;10397;50.948;11.092;2023-05-10T10:14:13;0.30;;;0.17;;
20476;SDS011;10397;50.948;11.092;2023-05-10T10:16:44;0.20;;;0.10;;
20476;SDS011;10397;50.948;11.092;2023-05-10T10:19:15;0.30;;;0.13;;
20476;SDS011;10397;50.948;11.092;2023-05-10T10:21:47;0.27;;;0.20;;
20476;SDS011;10397;50.948;11.092;2023-05-10T10:24:17;0.97;;;0.27;;
20476;SDS011;10397;50.948;11.092;2023-05-10T10:26:48;1.17;;;0.30;;
20476;SDS011;10397;50.948;11.092;2023-05-10T10:30:04;0.10;;;0.10;;
20476;SDS011;10397;50.948;11.092;2023-05-10T10:34:31;0.20;;;0.13;;
20476;SDS011;10397;50.948;11.092;2023-05-10T10:37:05;0.30;;;0.10;;
20476;SDS011;10397;50.948;11.092;2023-05-10T10:39:36;0.50;;;0.10;;
20476;SDS011;10397;50.948;11.092;2023-05-10T10:42:07;0.50;;;0.10;;
20476;SDS011;10397;50.948;11.092;2023-05-10T10:44:38;0.33;;;0.20;;
20476;SDS011;10397;50.948;11.092;2023-05-10T10:52:31;0.10;;;0.03;;
20476;SDS011;10397;50.948;11.092;2023-05-10T10:55:06;0.93;;;0.20;;
20476;SDS011;10397;50.948;11.092;2023-05-10T10:57:46;0.37;;;0.10;;
20476;SDS011;10397;50.948;11.092;2023-05-10T11:00:22;1.20;;;0.20;;
20476;SDS011;10397;50.948;11.092;2023-05-10T11:03:05;0.30;;;0.00;;
20476;SDS011;10397;50.948;11.092;2023-05-10T11:05:36;0.10;;;0.10;;
20476;SDS011;10397;50.948;11.092;2023-05-10T11:08:15;0.60;;;0.10;;
20476;SDS011;10397;50.948;11.092;2023-05-10T11:13:40;1.30;;;0.10;;
20476;SDS011;10397;50.948;11.092;2023-05-10T11:16:22;1.47;;;0.20;;
20476;SDS011;10397;50.948;11.092;2023-05-10T11:21:34;0.43;;;0.20;;
20476;SDS011;10397;50.948;11.092;2023-05-10T11:24:09;5.10;;;0.50;;
20476;SDS011;10397;50.948;11.092;2023-05-10T11:26:35;0.10;;;0.10;;
20476;SDS011;10397;50.948;11.092;2023-05-10T11:29:06;0.43;;;0.10;;
20476;SDS011;10397;50.948;11.092;2023-05-10T11:31:41;2.20;;;0.17;;
20476;SDS011;10397;50.948;11.092;2023-05-10T11:34:07;1.47;;;0.30;;
20476;SDS011;10397;50.948;11.092;2023-05-10T11:36:38;0.60;;;0.23;;
20476;SDS011;10397;50.948;11.092;2023-05-10T11:39:09;1.17;;;0.20;;
20476;SDS011;10397;50.948;11.092;2023-05-10T11:41:40;0.47;;;0.23;;
20476;SDS011;10397;50.948;11.092;2023-05-10T11:44:11;1.80;;;0.23;;
20476;SDS011;10397;50.948;11.092;2023-05-10T11:46:42;0.67;;;0.40;;
20476;SDS011;10397;50.948;11.092;2023-05-10T11:49:13;0.83;;;0.37;;
20476;SDS011;10397;50.948;11.092;2023-05-10T11:51:44;1.90;;;0.97;;
20476;SDS011;10397;50.948;11.092;2023-05-10T11:54:15;0.90;;;0.80;;
20476;SDS011;10397;50.948;11.092;2023-05-10T11:56:46;2.73;;;0.40;;
20476;SDS011;10397;50.948;11.092;2023-05-10T11:59:18;0.20;;;0.20;;
20476;SDS011;10397;50.948;11.092;2023-05-10T12:01:49;0.67;;;0.37;;
20476;SDS011;10397;50.948;11.092;2023-05-10T12:04:20;0.73;;;0.17;;
20476;SDS011;10397;50.948;11.092;2023-05-10T12:06:51;0.43;;;0.20;;
20476;SDS011;10397;50.948;11.092;2023-05-10T12:09:21;0.60;;;0.20;;
20476;SDS011;10397;50.948;11.092;2023-05-10T12:11:55;0.60;;;0.30;;
20476;SDS011;10397;50.948;11.092;2023-05-10T12:14:23;0.30;;;0.20;;
20476;SDS011;10397;50.948;11.092;2023-05-10T12:16:56;0.30;;;0.10;;
20476;SDS011;10397;50.948;11.092;2023-05-10T12:19:25;0.97;;;0.20;;
20476;SDS011;10397;50.948;11.092;2023-05-10T12:21:56;1.97;;;0.20;;
20476;SDS011;10397;50.948;11.092;2023-05-10T12:24:27;2.63;;;0.20;;
20476;SDS011;10397;50.948;11.092;2023-05-10T12:26:58;0.40;;;0.10;;
20476;SDS011;10397;50.948;11.092;2023-05-10T12:29:29;1.00;;;0.10;;
20476;SDS011;10397;50.948;11.092;2023-05-10T12:31:59;0.60;;;0.10;;
20476;SDS011;10397;50.948;11.092;2023-05-10T12:34:31;2.17;;;0.20;;
20476;SDS011;10397;50.948;11.092;2023-05-10T12:37:01;0.50;;;0.10;;
20476;SDS011;10397;50.948;11.092;2023-05-10T12:39:41;2.00;;;0.10;;
20476;SDS011;10397;50.948;11.092;2023-05-10T12:42:11;0.20;;;0.10;;
20476;SDS011;10397;50.948;11.092;2023-05-10T12:44:42;1.03;;;0.20;;
20476;SDS011;10397;50.948;11.092;2023-05-10T12:47:13;0.70;;;0.10;;
20476;SDS011;10397;50.948;11.092;2023-05-10T12:49:44;1.50;;;0.10;;
20476;SDS011;10397;50.948;11.092;2023-05-10T12:52:15;0.70;;;0.10;;
20476;SDS011;10397;50.948;11.092;2023-05-10T12:54:46;0.30;;;0.10;;
20476;SDS011;10397;50.948;11.092;2023-05-10T12:57:17;0.10;;;0.10;;
20476;SDS011;10397;50.948;11.092;2023-05-10T12:59:48;0.10;;;0.10;;
20476;SDS011;10397;50.948;11.092;2023-05-10T13:02:19;0.43;;;0.20;;
20476;SDS011;10397;50.948;11.092;2023-05-10T13:04:50;0.40;;;0.20;;
20476;SDS011;10397;50.948;11.092;2023-05-10T13:07:21;0.10;;;0.10;;
20476;SDS011;10397;50.948;11.092;2023-05-10T13:09:52;0.10;;;0.10;;
20476;SDS011;10397;50.948;11.092;2023-05-10T13:12:23;0.67;;;0.20;;
20476;SDS011;10397;50.948;11.092;2023-05-10T13:14:54;0.33;;;0.20;;
20476;SDS011;10397;50.948;11.092;2023-05-10T13:17:25;0.40;;;0.10;;
20476;SDS011;10397;50.948;11.092;2023-05-10T13:19:56;0.40;;;0.23;;
20476;SDS011;10397;50.948;11.092;2023-05-10T13:22:27;0.53;;;0.20;;
20476;SDS011;10397;50.948;11.092;2023-05-10T13:24:58;0.63;;;0.30;;
20476;SDS011;10397;50.948;11.092;2023-05-10T13:27:29;0.63;;;0.10;;
20476;SDS011;10397;50.948;11.092;2023-05-10T13:30:00;0.67;;;0.27;;
20476;SDS011;10397;50.948;11.092;2023-05-10T13:32:30;0.67;;;0.20;;
20476;SDS011;10397;50.948;11.092;2023-05-10T13:35:02;2.00;;;0.10;;
20476;SDS011;10397;50.948;11.092;2023-05-10T13:37:32;1.70;;;0.20;;
20476;SDS011;10397;50.948;11.092;2023-05-10T13:40:03;0.40;;;0.17;;
20476;SDS011;10397;50.948;11.092;2023-05-10T13:42:34;0.47;;;0.10;;
20476;SDS011;10397;50.948;11.092;2023-05-10T13:45:05;0.10;;;0.10;;
20476;SDS011;10397;50.948;11.092;2023-05-10T13:47:35;0.83;;;0.10;;
20476;SDS011;10397;50.948;11.092;2023-05-10T13:50:06;0.87;;;0.33;;
20476;SDS011;10397;50.948;11.092;2023-05-10T13:52:37;0.50;;;0.10;;
20476;SDS011;10397;50.948;11.092;2023-05-10T13:55:07;0.93;;;0.20;;
20476;SDS011;10397;50.948;11.092;2023-05-10T13:57:38;0.57;;;0.20;;
20476;SDS011;10397;50.948;11.092;2023-05-10T14:00:09;1.60;;;0.10;;
20476;SDS011;10397;50.948;11.092;2023-05-10T14:02:39;0.57;;;0.20;;
20476;SDS011;10397;50.948;11.092;2023-05-10T14:05:11;0.60;;;0.10;;
20476;SDS011;10397;50.948;11.092;2023-05-10T14:07:42;0.87;;;0.10;;
20476;SDS011;10397;50.948;11.092;2023-05-10T14:10:13;0.50;;;0.20;;
20476;SDS011;10397;50.948;11.092;2023-05-10T14:12:44;0.47;;;0.20;;
20476;SDS011;10397;50.948;11.092;2023-05-10T14:15:15;2.33;;;0.20;;
20476;SDS011;10397;50.948;11.092;2023-05-10T14:17:46;0.70;;;0.20;;
20476;SDS011;10397;50.948;11.092;2023-05-10T14:20:16;0.30;;;0.10;;
20476;SDS011;10397;50.948;11.092;2023-05-10T14:22:47;0.33;;;0.20;;
20476;SDS011;10397;50.948;11.092;2023-05-10T14:25:18;0.67;;;0.10;;
20476;SDS011;10397;50.948;11.092;2023-05-10T14:27:50;0.60;;;0.20;;
20476;SDS011;10397;50.948;11.092;2023-05-10T14:30:21;0.73;;;0.10;;
20476;SDS011;10397;50.948;11.092;2023-05-10T14:32:52;6.83;;;0.20;;
20476;SDS011;10397;50.948;11.092;2023-05-10T14:35:22;0.20;;;0.20;;
20476;SDS011;10397;50.948;11.092;2023-05-10T14:37:53;0.53;;;0.10;;
20476;SDS011;10397;50.948;11.092;2023-05-10T14:40:24;4.00;;;0.20;;
20476;SDS011;10397;50.948;11.092;2023-05-10T14:42:55;0.20;;;0.10;;
20476;SDS011;10397;50.948;11.092;2023-05-10T14:45:26;2.97;;;0.10;;
20476;SDS011;10397;50.948;11.092;2023-05-10T14:47:57;0.67;;;0.20;;
20476;SDS011;10397;50.948;11.092;2023-05-10T14:50:28;4.53;;;0.30;;
20476;SDS011;10397;50.948;11.092;2023-05-10T14:52:59;1.13;;;0.30;;
20476;SDS011;10397;50.948;11.092;2023-05-10T14:55:30;0.80;;;0.10;;
20476;SDS011;10397;50.948;11.092;2023-05-10T14:58:04;1.37;;;0.20;;
20476;SDS011;10397;50.948;11.092;2023-05-10T15:00:34;0.50;;;0.20;;
20476;SDS011;10397;50.948;11.092;2023-05-10T15:03:05;0.43;;;0.10;;
20476;SDS011;10397;50.948;11.092;2023-05-10T15:05:36;0.47;;;0.20;;
20476;SDS011;10397;50.948;11.092;2023-05-10T15:08:07;3.60;;;0.43;;
20476;SDS011;10397;50.948;11.092;2023-05-10T15:10:38;1.23;;;0.20;;
20476;SDS011;10397;50.948;11.092;2023-05-10T15:13:08;1.57;;;0.30;;
20476;SDS011;10397;50.948;11.092;2023-05-10T15:15:39;0.97;;;0.20;;
20476;SDS011;10397;50.948;11.092;2023-05-10T15:18:10;0.20;;;0.10;;
20476;SDS011;10397;50.948;11.092;2023-05-10T15:20:41;2.47;;;0.20;;
20476;SDS011;10397;50.948;11.092;2023-05-10T15:23:12;0.10;;;0.10;;
20476;SDS011;10397;50.948;11.092;2023-05-10T15:25:43;3.23;;;0.10;;
20476;SDS011;10397;50.948;11.092;2023-05-10T15:28:14;2.20;;;0.20;;